Main page
METAR-TAF:

METAR-TAF

Airports :

Jersey Airport

Jersey,

latitude: 49-13N, longitude: 002-12W, elevation: 84 m

Current weather observation

The report was made 20 minutes ago, at 19:50 UTC
Wind 16 kt from the West/Southwest
Temperature 8°C
Humidity 93%
Pressure 1027 hPa
Visibility 10 km or more
Few clouds at a height of 1000 ft
Broken clouds at a height of 1400 ft

METAR: EGJJ 291950Z 25016KT 9999 FEW010 BKN014 08/07 Q1027

Time: 20:10 (20:10 UTC)

Forecast

The report was made 3 hours and 12 minutes ago, at 16:58 UTC
Forecast valid from 29 at 18 UTC to 30 at 03 UTC
Wind 11 kt from the West
Visibility 10 km or more
Scattered clouds at a height of 1800 ft
Probability 30% :
Temporary
from 29 at 18 UTC to 29 at 21 UTC
Broken clouds at a height of 1400 ft
Probability 40% :
Temporary
from 29 at 21 UTC to 30 at 03 UTC
Visibility: 7000 m
Broken clouds at a height of 800 ft
light rain

TAF: EGJJ 291658Z 2918/3003 26011KT 9999 SCT018 PROB30 TEMPO 2918/2921 BKN014 PROB40 TEMPO 2921/3003 7000 -RA BKN008

Weather observations and forecasts of more than 4000 airports (METAR and TAF reports).

The available stations are represented by yellow and red dots on the map.

Hover mouse over dot to see the name of the station.

Then click to see weather observations and forecasts.

To change the map : click on the green buttons with a black cross to zoom in, on the green button with a dash to zoom out, or on the green arrows for adjacent maps.


METAR-TAF: